createdAt,value
2023-03-30T00:00:23.229Z,39.67
2023-03-30T00:01:23.196Z,39.65
2023-03-30T00:02:23.228Z,39.66
2023-03-30T00:03:23.386Z,39.67
2023-03-30T00:04:23.447Z,39.64
2023-03-30T00:05:23.348Z,39.69
2023-03-30T00:06:23.668Z,39.63
2023-03-30T00:07:23.449Z,39.67
2023-03-30T00:08:23.942Z,39.65
2023-03-30T00:09:23.586Z,39.65
2023-03-30T00:10:23.589Z,39.65
2023-03-30T00:11:23.624Z,39.65
2023-03-30T00:12:23.674Z,39.68
2023-03-30T00:13:23.733Z,39.63
2023-03-30T00:14:23.776Z,39.67
2023-03-30T00:15:23.848Z,39.63
2023-03-30T00:16:23.936Z,39.62
2023-03-30T00:17:23.911Z,39.63
2023-03-30T00:18:23.958Z,39.64
2023-03-30T00:19:24.039Z,39.63
2023-03-30T00:20:24.119Z,39.65
2023-03-30T00:21:24.179Z,39.67
2023-03-30T00:22:24.142Z,39.65
2023-03-30T00:23:24.187Z,39.64
2023-03-30T00:24:24.247Z,39.65
2023-03-30T00:25:24.286Z,39.64
2023-03-30T00:26:24.454Z,39.60
2023-03-30T00:27:24.365Z,39.68
2023-03-30T00:28:24.412Z,39.58
2023-03-30T00:29:24.453Z,39.64
2023-03-30T00:30:24.597Z,39.63
2023-03-30T00:31:24.652Z,39.59
2023-03-30T00:32:24.631Z,39.64
2023-03-30T00:33:37.146Z,39.61
2023-03-30T00:34:25.632Z,39.57
2023-03-30T00:35:24.719Z,39.59
2023-03-30T00:36:24.671Z,39.59
2023-03-30T00:37:24.647Z,39.56
2023-03-30T00:38:24.660Z,39.58
2023-03-30T00:39:24.660Z,39.55
2023-03-30T00:40:24.646Z,39.58
2023-03-30T00:41:24.649Z,39.58
2023-03-30T00:42:24.648Z,39.58
2023-03-30T00:43:24.710Z,39.62
2023-03-30T00:44:24.656Z,39.61
2023-03-30T00:45:24.698Z,39.58
2023-03-30T00:46:24.800Z,39.63
2023-03-30T00:47:25.438Z,39.56
2023-03-30T00:48:24.814Z,39.59
2023-03-30T00:49:24.871Z,39.56
2023-03-30T00:50:24.913Z,39.52
2023-03-30T00:51:24.943Z,39.51
2023-03-30T00:52:24.988Z,39.55
2023-03-30T00:53:25.030Z,39.52
2023-03-30T00:54:25.077Z,39.54
2023-03-30T00:55:25.108Z,39.53
2023-03-30T00:56:25.148Z,39.53
2023-03-30T00:57:25.266Z,39.55
2023-03-30T00:58:25.942Z,39.52
2023-03-30T00:59:25.291Z,39.54
2023-03-30T01:00:25.345Z,39.56
2023-03-30T01:01:25.407Z,39.55
2023-03-30T01:02:25.509Z,39.54
2023-03-30T01:03:25.542Z,39.58
2023-03-30T01:04:25.523Z,39.55
2023-03-30T01:05:25.573Z,39.52
2023-03-30T01:06:25.614Z,39.56
2023-03-30T01:07:25.661Z,39.53
2023-03-30T01:08:25.719Z,39.57
2023-03-30T01:09:25.755Z,39.55
2023-03-30T01:10:25.822Z,39.50
2023-03-30T01:11:25.852Z,39.49
2023-03-30T01:12:25.908Z,39.46
2023-03-30T01:13:25.954Z,39.52
2023-03-30T01:14:26.010Z,39.54
2023-03-30T01:15:26.069Z,39.51
2023-03-30T01:16:26.116Z,39.50
2023-03-30T01:17:26.243Z,39.51
2023-03-30T01:18:26.207Z,39.49
2023-03-30T01:19:26.252Z,39.51
2023-03-30T01:20:26.293Z,39.48
2023-03-30T01:21:26.343Z,39.50
2023-03-30T01:22:26.393Z,39.49
2023-03-30T01:23:26.958Z,39.46
2023-03-30T01:24:26.479Z,39.50
2023-03-30T01:25:26.530Z,39.42
2023-03-30T01:26:26.577Z,39.46
2023-03-30T01:27:26.705Z,39.45
2023-03-30T01:28:27.454Z,39.47
2023-03-30T01:29:26.715Z,39.49
2023-03-30T01:30:26.778Z,39.45
2023-03-30T01:31:26.875Z,39.50
2023-03-30T01:32:26.873Z,39.46
2023-03-30T01:33:26.905Z,39.51
2023-03-30T01:34:26.951Z,39.50
2023-03-30T01:35:27.101Z,39.50
2023-03-30T01:36:27.084Z,39.52
2023-03-30T01:37:27.084Z,39.43
2023-03-30T01:38:27.181Z,39.46
2023-03-30T01:39:27.169Z,39.42
2023-03-30T01:40:27.215Z,39.45
2023-03-30T01:41:27.236Z,39.43
2023-03-30T01:42:27.298Z,39.42
2023-03-30T01:43:27.382Z,39.47
2023-03-30T01:44:27.355Z,39.45
2023-03-30T01:45:27.412Z,39.45
2023-03-30T01:46:27.492Z,39.44
2023-03-30T01:47:27.507Z,39.46
2023-03-30T01:48:27.524Z,39.42
2023-03-30T01:49:27.584Z,39.47
2023-03-30T01:50:27.689Z,39.45
2023-03-30T01:51:27.656Z,39.47
2023-03-30T01:52:27.721Z,39.43
2023-03-30T01:53:27.746Z,39.45
2023-03-30T01:54:27.790Z,39.44
2023-03-30T01:55:27.838Z,39.45
2023-03-30T01:56:27.863Z,39.46
2023-03-30T01:57:28.024Z,39.45
2023-03-30T01:58:27.946Z,39.46
2023-03-30T01:59:27.996Z,39.43
2023-03-30T02:00:28.041Z,39.43
2023-03-30T02:01:28.090Z,39.48
2023-03-30T02:02:28.298Z,39.42
2023-03-30T02:03:28.644Z,39.43
2023-03-30T02:04:28.470Z,39.48
2023-03-30T02:05:28.219Z,39.46
2023-03-30T02:06:28.242Z,39.43
2023-03-30T02:07:28.284Z,39.41
2023-03-30T02:08:28.964Z,39.43
2023-03-30T02:09:28.356Z,39.42
2023-03-30T02:10:28.399Z,39.42
2023-03-30T02:11:28.439Z,39.40
2023-03-30T02:12:28.494Z,39.43
2023-03-30T02:13:28.524Z,39.42
2023-03-30T02:14:28.577Z,39.40
2023-03-30T02:15:28.610Z,39.38
2023-03-30T02:16:28.724Z,39.41
2023-03-30T02:17:28.711Z,39.42
2023-03-30T02:18:28.731Z,39.40
2023-03-30T02:19:28.789Z,39.43
2023-03-30T02:20:28.816Z,39.43
2023-03-30T02:21:28.853Z,39.41
2023-03-30T02:22:28.905Z,39.34
2023-03-30T02:23:28.949Z,39.40
2023-03-30T02:24:29.002Z,39.36
2023-03-30T02:25:29.039Z,39.38
2023-03-30T02:26:29.084Z,39.36
2023-03-30T02:27:29.969Z,39.38
2023-03-30T02:28:29.201Z,39.38
2023-03-30T02:29:29.219Z,39.37
2023-03-30T02:30:29.260Z,39.36
2023-03-30T02:31:29.343Z,39.35
2023-03-30T02:32:29.394Z,39.36
2023-03-30T02:33:29.398Z,39.32
2023-03-30T02:34:29.456Z,39.37
2023-03-30T02:35:29.516Z,39.32
2023-03-30T02:36:29.552Z,39.33
2023-03-30T02:37:29.589Z,39.33
2023-03-30T02:38:29.664Z,39.31
2023-03-30T02:39:29.706Z,39.30
2023-03-30T02:40:29.816Z,39.31
2023-03-30T02:41:29.768Z,39.28
2023-03-30T02:42:29.829Z,39.30
2023-03-30T02:43:29.890Z,39.33
2023-03-30T02:44:29.932Z,39.28
2023-03-30T02:45:29.996Z,39.33
2023-03-30T02:46:30.000Z,39.28
2023-03-30T02:47:30.092Z,39.26
2023-03-30T02:48:30.096Z,39.24
2023-03-30T02:49:30.216Z,39.28
2023-03-30T02:50:30.186Z,39.24
2023-03-30T02:51:30.294Z,39.22
2023-03-30T02:52:30.278Z,39.23
2023-03-30T02:53:30.325Z,39.23
2023-03-30T02:54:30.365Z,39.19
2023-03-30T02:55:30.425Z,39.21
2023-03-30T02:56:30.505Z,39.21
2023-03-30T02:57:30.512Z,39.21
2023-03-30T02:58:31.502Z,39.22
2023-03-30T02:59:30.530Z,39.22
2023-03-30T03:00:30.510Z,39.23
2023-03-30T03:01:30.557Z,39.18
2023-03-30T03:02:31.042Z,39.17
2023-03-30T03:03:30.588Z,39.19
2023-03-30T03:04:30.488Z,39.20
2023-03-30T03:05:30.475Z,39.17
2023-03-30T03:06:30.461Z,39.20
2023-03-30T03:07:30.451Z,39.20
2023-03-30T03:08:30.479Z,39.18
2023-03-30T03:09:30.539Z,39.17
2023-03-30T03:10:30.575Z,39.14
2023-03-30T03:11:30.618Z,39.11
2023-03-30T03:12:30.662Z,39.12
2023-03-30T03:13:30.714Z,39.11
2023-03-30T03:14:30.769Z,39.12
2023-03-30T03:15:30.839Z,39.11
2023-03-30T03:16:30.900Z,39.12
2023-03-30T03:17:30.905Z,39.13
2023-03-30T03:18:30.941Z,39.07
2023-03-30T03:19:30.982Z,39.13
2023-03-30T03:20:31.051Z,39.12
2023-03-30T03:21:31.076Z,39.12
2023-03-30T03:22:31.136Z,39.11
2023-03-30T03:23:31.183Z,39.11
2023-03-30T03:24:31.221Z,39.12
2023-03-30T03:25:31.278Z,39.07
2023-03-30T03:26:31.320Z,39.05
2023-03-30T03:27:31.362Z,39.08
2023-03-30T03:28:31.416Z,39.04
2023-03-30T03:29:31.457Z,39.01
2023-03-30T03:30:31.498Z,39.04
2023-03-30T03:31:31.606Z,39.04
2023-03-30T03:32:31.571Z,39.07
2023-03-30T03:33:31.617Z,39.08
2023-03-30T03:34:31.658Z,39.06
2023-03-30T03:35:31.729Z,39.04
2023-03-30T03:36:31.753Z,39.06
2023-03-30T03:37:31.786Z,39.01
2023-03-30T03:38:31.830Z,39.06
2023-03-30T03:39:31.872Z,39.01
2023-03-30T03:40:31.989Z,39.00
2023-03-30T03:41:31.948Z,39.04
2023-03-30T03:42:32.110Z,39.01
2023-03-30T03:43:32.043Z,38.97
2023-03-30T03:44:32.081Z,38.98
2023-03-30T03:45:32.134Z,39.01
2023-03-30T03:46:32.201Z,38.95
2023-03-30T03:47:32.224Z,38.94
2023-03-30T03:48:32.271Z,38.98
2023-03-30T03:49:32.309Z,38.97
2023-03-30T03:50:32.370Z,38.94
2023-03-30T03:51:32.482Z,38.90
2023-03-30T03:52:32.454Z,38.94
2023-03-30T03:53:32.493Z,38.93
2023-03-30T03:54:32.538Z,38.93
2023-03-30T03:55:32.579Z,38.92
2023-03-30T03:56:32.629Z,38.97
2023-03-30T03:57:32.710Z,38.94
2023-03-30T03:58:32.707Z,38.94
2023-03-30T03:59:32.756Z,38.94
2023-03-30T04:00:32.822Z,38.94
2023-03-30T04:01:32.862Z,38.93
2023-03-30T04:02:32.972Z,38.93
2023-03-30T04:03:32.943Z,38.92
2023-03-30T04:04:33.037Z,38.89
2023-03-30T04:05:33.045Z,38.94
2023-03-30T04:06:33.090Z,38.88
2023-03-30T04:07:33.140Z,38.89
2023-03-30T04:08:33.182Z,38.88
2023-03-30T04:09:33.237Z,38.92
2023-03-30T04:10:33.291Z,38.92
2023-03-30T04:11:33.345Z,38.88
2023-03-30T04:12:33.385Z,38.93
2023-03-30T04:13:33.446Z,38.87
2023-03-30T04:14:33.506Z,38.89
2023-03-30T04:15:33.562Z,38.87
2023-03-30T04:16:33.693Z,38.90
2023-03-30T04:17:33.697Z,38.85
2023-03-30T04:18:33.760Z,38.87
2023-03-30T04:19:33.735Z,38.90
2023-03-30T04:20:33.794Z,38.85
2023-03-30T04:21:33.842Z,38.85
2023-03-30T04:22:33.889Z,38.87
2023-03-30T04:23:33.999Z,38.84
2023-03-30T04:24:33.995Z,38.84
2023-03-30T04:25:34.048Z,38.87
2023-03-30T04:26:34.095Z,38.85
2023-03-30T04:27:34.152Z,38.83
2023-03-30T04:28:34.215Z,38.87
2023-03-30T04:29:34.258Z,38.85
2023-03-30T04:30:34.305Z,38.85
2023-03-30T04:31:34.387Z,38.88
2023-03-30T04:32:34.491Z,38.84
2023-03-30T04:33:34.452Z,38.85
2023-03-30T04:34:34.506Z,38.83
2023-03-30T04:35:34.665Z,38.83
2023-03-30T04:36:34.615Z,38.83
2023-03-30T04:37:34.663Z,38.81
2023-03-30T04:38:34.733Z,38.80
2023-03-30T04:39:34.763Z,38.84
2023-03-30T04:40:34.824Z,38.80
2023-03-30T04:41:34.920Z,38.76
2023-03-30T04:42:34.917Z,38.79
2023-03-30T04:43:34.981Z,38.80
2023-03-30T04:44:35.022Z,38.79
2023-03-30T04:45:35.110Z,38.80
2023-03-30T04:46:35.114Z,38.82
2023-03-30T04:47:35.171Z,38.78
2023-03-30T04:48:35.203Z,38.76
2023-03-30T04:49:35.234Z,38.82
2023-03-30T04:50:35.284Z,38.76
2023-03-30T04:51:35.334Z,38.70
2023-03-30T04:52:35.367Z,38.71
2023-03-30T04:53:35.430Z,38.76
2023-03-30T04:54:35.474Z,38.74
2023-03-30T04:55:35.515Z,38.77
2023-03-30T04:56:35.564Z,38.76
2023-03-30T04:57:35.644Z,38.74
2023-03-30T04:58:35.652Z,38.76
2023-03-30T04:59:35.709Z,38.75
2023-03-30T05:00:35.742Z,38.78
2023-03-30T05:01:35.820Z,38.78
2023-03-30T05:02:35.946Z,38.80
2023-03-30T05:03:35.956Z,38.80
2023-03-30T05:04:35.914Z,38.75
2023-03-30T05:05:35.951Z,38.81
2023-03-30T05:06:35.996Z,38.78
2023-03-30T05:07:36.044Z,38.78
2023-03-30T05:08:36.084Z,38.78
2023-03-30T05:09:36.123Z,38.78
2023-03-30T05:10:36.171Z,38.76
2023-03-30T05:11:36.213Z,38.79
2023-03-30T05:12:36.255Z,38.80
2023-03-30T05:13:36.302Z,38.78
2023-03-30T05:14:36.347Z,38.79
2023-03-30T05:15:37.036Z,38.76
2023-03-30T05:16:36.474Z,38.76
2023-03-30T05:17:36.511Z,38.78
2023-03-30T05:18:36.528Z,38.80
2023-03-30T05:19:36.562Z,39.54
2023-03-30T05:20:36.601Z,40.25
2023-03-30T05:21:36.729Z,40.10
2023-03-30T05:22:36.632Z,40.30
2023-03-30T05:23:36.653Z,40.40
2023-03-30T05:24:36.665Z,40.66
2023-03-30T05:25:36.678Z,41.06
2023-03-30T05:26:36.749Z,41.60
2023-03-30T05:27:37.538Z,41.65
2023-03-30T05:28:36.674Z,42.08
2023-03-30T05:29:36.679Z,42.59
2023-03-30T05:30:36.666Z,43.10
2023-03-30T05:31:36.740Z,44.26
2023-03-30T05:32:36.727Z,44.49
2023-03-30T05:33:36.706Z,44.24
2023-03-30T05:34:36.810Z,44.80
2023-03-30T05:35:36.864Z,45.01
2023-03-30T05:36:36.864Z,45.34
2023-03-30T05:37:36.969Z,46.16
2023-03-30T05:38:36.956Z,46.34
2023-03-30T05:39:37.021Z,46.86
2023-03-30T05:40:37.039Z,47.53
2023-03-30T05:41:37.082Z,47.47
2023-03-30T05:42:38.549Z,47.79
2023-03-30T05:43:37.195Z,48.34
2023-03-30T05:44:37.192Z,49.31
2023-03-30T05:45:37.216Z,49.44
2023-03-30T05:46:38.224Z,50.85
2023-03-30T05:47:37.218Z,49.27
2023-03-30T05:48:37.176Z,49.58
2023-03-30T05:49:37.763Z,49.97
2023-03-30T05:50:38.055Z,50.08
2023-03-30T05:51:37.121Z,50.11
2023-03-30T05:52:37.113Z,50.59
2023-03-30T05:53:37.970Z,50.97
2023-03-30T05:54:37.068Z,51.10
2023-03-30T05:55:37.030Z,51.75
2023-03-30T05:56:37.003Z,51.81
2023-03-30T05:57:37.155Z,51.99
2023-03-30T05:58:37.514Z,52.21
2023-03-30T05:59:36.996Z,52.21
2023-03-30T06:00:37.602Z,52.48
2023-03-30T06:01:37.009Z,52.58
2023-03-30T06:02:37.059Z,52.59
2023-03-30T06:03:37.132Z,52.93
2023-03-30T06:04:37.041Z,53.07
2023-03-30T06:05:37.028Z,53.40
2023-03-30T06:06:37.016Z,53.70
2023-03-30T06:07:37.004Z,53.67
2023-03-30T06:08:37.009Z,54.02
2023-03-30T06:09:36.994Z,54.01
2023-03-30T06:10:36.996Z,54.32
2023-03-30T06:11:37.056Z,54.20
2023-03-30T06:12:36.990Z,54.63
2023-03-30T06:13:36.964Z,54.84
2023-03-30T06:14:36.968Z,54.81
2023-03-30T06:15:36.948Z,55.06
2023-03-30T06:16:36.957Z,55.35
2023-03-30T06:17:37.048Z,55.86
2023-03-30T06:18:36.907Z,55.47
2023-03-30T06:19:37.519Z,55.46
2023-03-30T06:20:36.872Z,55.65
2023-03-30T06:21:36.919Z,56.01
2023-03-30T06:22:36.826Z,55.93
2023-03-30T06:23:36.796Z,56.34
2023-03-30T06:24:36.778Z,56.24
2023-03-30T06:25:36.844Z,56.48
2023-03-30T06:26:36.730Z,56.65
2023-03-30T06:27:36.717Z,56.92
2023-03-30T06:28:36.685Z,56.98
2023-03-30T06:29:36.650Z,57.02
2023-03-30T06:30:36.651Z,57.11
2023-03-30T06:31:36.712Z,57.30
2023-03-30T06:32:36.632Z,57.37
2023-03-30T06:33:37.511Z,57.41
2023-03-30T06:34:36.589Z,57.75
2023-03-30T06:35:36.604Z,57.57
2023-03-30T06:36:44.191Z,58.30
2023-03-30T06:37:37.544Z,57.96
2023-03-30T06:38:36.477Z,58.11
2023-03-30T06:39:36.464Z,58.21
2023-03-30T06:40:36.427Z,58.24
2023-03-30T06:41:36.396Z,58.19
2023-03-30T06:42:36.371Z,58.46
2023-03-30T06:43:36.348Z,58.68
2023-03-30T06:44:36.316Z,58.68
2023-03-30T06:45:36.396Z,58.78
2023-03-30T06:46:36.257Z,58.77
2023-03-30T06:47:36.264Z,59.11
2023-03-30T06:48:36.251Z,58.88
2023-03-30T06:49:36.320Z,58.92
2023-03-30T06:50:36.323Z,59.17
2023-03-30T06:51:36.349Z,59.70
2023-03-30T06:52:36.365Z,59.25
2023-03-30T06:53:36.329Z,59.14
2023-03-30T06:54:36.324Z,59.00
2023-03-30T06:55:36.351Z,58.38
2023-03-30T06:56:36.304Z,57.50
2023-03-30T06:57:36.290Z,57.83
2023-03-30T06:58:36.272Z,57.84
2023-03-30T06:59:36.990Z,57.97
2023-03-30T07:00:36.244Z,58.01
2023-03-30T07:01:36.270Z,58.03
2023-03-30T07:02:36.314Z,58.23
2023-03-30T07:03:36.264Z,58.33
2023-03-30T07:04:36.371Z,58.67
2023-03-30T07:05:36.309Z,58.73
2023-03-30T07:06:36.344Z,58.88
2023-03-30T07:07:36.376Z,59.06
2023-03-30T07:08:36.410Z,59.08
2023-03-30T07:09:36.429Z,59.23
2023-03-30T07:10:36.459Z,59.30
2023-03-30T07:11:36.667Z,59.27
2023-03-30T07:12:36.511Z,59.60
2023-03-30T07:13:36.529Z,59.97
2023-03-30T07:14:36.535Z,59.74
2023-03-30T07:15:36.556Z,60.32
2023-03-30T07:16:36.659Z,59.35
2023-03-30T07:17:36.627Z,57.68
2023-03-30T07:18:36.581Z,56.02
2023-03-30T07:19:36.599Z,51.36
2023-03-30T07:20:36.626Z,50.85
2023-03-30T07:21:36.620Z,51.54
2023-03-30T07:22:37.609Z,52.32
2023-03-30T07:23:36.616Z,52.89
2023-03-30T07:24:36.634Z,53.76
2023-03-30T07:25:37.752Z,54.14
2023-03-30T07:26:36.709Z,54.45
2023-03-30T07:27:36.745Z,54.71
2023-03-30T07:28:36.731Z,55.00
2023-03-30T07:29:37.028Z,55.03
2023-03-30T07:30:37.594Z,55.29
2023-03-30T07:31:36.719Z,55.53
2023-03-30T07:32:36.770Z,55.46
2023-03-30T07:33:36.707Z,55.84
2023-03-30T07:34:36.662Z,55.99
2023-03-30T07:35:36.704Z,56.15
2023-03-30T07:36:36.718Z,56.39
2023-03-30T07:37:36.761Z,56.47
2023-03-30T07:38:36.768Z,56.73
2023-03-30T07:39:36.865Z,56.86
2023-03-30T07:40:36.885Z,56.92
2023-03-30T07:41:36.836Z,57.17
2023-03-30T07:42:36.868Z,57.13
2023-03-30T07:43:37.091Z,57.26
2023-03-30T07:44:36.886Z,57.47
2023-03-30T07:45:36.893Z,57.48
2023-03-30T07:46:36.956Z,57.72
2023-03-30T07:47:36.952Z,57.81
2023-03-30T07:48:36.997Z,58.08
2023-03-30T07:49:36.943Z,58.06
2023-03-30T07:50:36.952Z,58.21
2023-03-30T07:51:37.098Z,58.10
2023-03-30T07:52:36.951Z,58.44
2023-03-30T07:53:36.968Z,58.62
2023-03-30T07:54:37.959Z,58.57
2023-03-30T07:55:36.876Z,58.67
2023-03-30T07:56:36.877Z,58.88
2023-03-30T07:57:36.830Z,59.06
2023-03-30T07:58:36.744Z,59.23
2023-03-30T07:59:36.715Z,59.15
2023-03-30T08:00:36.673Z,59.39
2023-03-30T08:01:36.629Z,59.60
2023-03-30T08:02:36.713Z,59.64
2023-03-30T08:03:36.639Z,59.82
2023-03-30T08:04:36.710Z,59.99
2023-03-30T08:05:36.532Z,60.06
2023-03-30T08:06:36.441Z,60.13
2023-03-30T08:07:36.383Z,60.39
2023-03-30T08:08:36.349Z,60.47
2023-03-30T08:09:36.304Z,60.56
2023-03-30T08:10:36.282Z,60.59
2023-03-30T08:11:36.276Z,60.94
2023-03-30T08:12:36.275Z,60.36
2023-03-30T08:13:37.093Z,60.03
2023-03-30T08:14:36.284Z,60.08
2023-03-30T08:15:36.357Z,60.08
2023-03-30T08:16:36.366Z,59.80
2023-03-30T08:17:37.131Z,58.78
2023-03-30T08:18:36.375Z,57.50
2023-03-30T08:19:36.428Z,58.10
2023-03-30T08:20:36.467Z,54.82
2023-03-30T08:21:36.358Z,49.53
2023-03-30T08:22:36.374Z,51.78
2023-03-30T08:23:36.411Z,48.99
2023-03-30T08:24:36.449Z,49.57
2023-03-30T08:25:36.475Z,48.58
2023-03-30T08:26:36.484Z,51.20
2023-03-30T08:27:36.539Z,52.22
2023-03-30T08:28:36.548Z,52.60
2023-03-30T08:29:36.596Z,53.10
2023-03-30T08:30:36.668Z,53.42
2023-03-30T08:31:36.757Z,53.69
2023-03-30T08:32:36.670Z,54.00
2023-03-30T08:33:36.652Z,54.17
2023-03-30T08:34:37.437Z,54.42
2023-03-30T08:35:36.683Z,54.84
2023-03-30T08:36:36.645Z,54.91
2023-03-30T08:37:36.649Z,55.10
2023-03-30T08:38:36.754Z,55.46
2023-03-30T08:39:36.715Z,55.33
2023-03-30T08:40:36.741Z,55.51
2023-03-30T08:41:37.532Z,55.75
2023-03-30T08:42:36.758Z,55.83
2023-03-30T08:43:36.731Z,56.05
2023-03-30T08:44:36.779Z,56.29
2023-03-30T08:45:36.835Z,56.23
2023-03-30T08:46:36.740Z,56.41
2023-03-30T08:47:36.817Z,56.55
2023-03-30T08:48:36.726Z,56.69
2023-03-30T08:49:36.726Z,56.69
2023-03-30T08:50:37.127Z,56.89
2023-03-30T08:51:37.536Z,57.02
2023-03-30T08:52:36.734Z,57.42
2023-03-30T08:53:36.653Z,57.21
2023-03-30T08:54:36.615Z,57.43
2023-03-30T08:55:36.590Z,57.89
2023-03-30T08:56:36.545Z,57.68
2023-03-30T08:57:36.510Z,57.60
2023-03-30T08:58:36.463Z,57.77
2023-03-30T08:59:36.419Z,57.84
2023-03-30T09:00:36.375Z,57.89
2023-03-30T09:01:36.404Z,57.84
2023-03-30T09:02:38.057Z,57.93
2023-03-30T09:03:36.244Z,58.20
2023-03-30T09:04:36.327Z,58.21
2023-03-30T09:05:36.224Z,58.25
2023-03-30T09:06:36.131Z,58.43
2023-03-30T09:07:36.068Z,58.71
2023-03-30T09:08:36.030Z,58.79
2023-03-30T09:09:35.978Z,58.86
2023-03-30T09:10:35.969Z,59.07
2023-03-30T09:11:35.898Z,59.10
2023-03-30T09:12:35.924Z,59.22
2023-03-30T09:13:35.945Z,59.35
2023-03-30T09:14:35.949Z,59.38
2023-03-30T09:15:35.999Z,59.37
2023-03-30T09:16:35.968Z,59.60
2023-03-30T09:17:36.917Z,59.52
2023-03-30T09:18:35.838Z,58.99
2023-03-30T09:19:35.867Z,58.94
2023-03-30T09:20:35.750Z,58.92
2023-03-30T09:21:35.706Z,58.80
2023-03-30T09:22:35.642Z,58.85
2023-03-30T09:23:36.545Z,58.88
2023-03-30T09:24:35.593Z,58.83
2023-03-30T09:25:35.507Z,58.75
2023-03-30T09:26:35.480Z,58.87
2023-03-30T09:27:35.417Z,58.84
2023-03-30T09:28:35.376Z,58.83
2023-03-30T09:29:35.342Z,58.93
2023-03-30T09:30:35.309Z,58.92
2023-03-30T09:31:35.274Z,58.94
2023-03-30T09:32:35.280Z,58.98
2023-03-30T09:33:35.160Z,58.92
2023-03-30T09:34:35.123Z,58.90
2023-03-30T09:35:35.107Z,58.98
2023-03-30T09:36:35.047Z,58.86
2023-03-30T09:37:35.009Z,58.86
2023-03-30T09:38:35.019Z,58.84
2023-03-30T09:39:34.942Z,58.86
2023-03-30T09:40:34.917Z,58.84
2023-03-30T09:41:34.884Z,58.83
2023-03-30T09:42:34.838Z,58.85
2023-03-30T09:43:34.792Z,58.77
2023-03-30T09:44:34.768Z,58.82
2023-03-30T09:45:34.733Z,58.83
2023-03-30T09:46:34.732Z,58.81
2023-03-30T09:47:34.705Z,58.71
2023-03-30T09:48:34.689Z,58.75
2023-03-30T09:49:34.688Z,58.67
2023-03-30T09:50:34.680Z,58.65
2023-03-30T09:51:35.137Z,58.71
2023-03-30T09:52:34.674Z,58.62
2023-03-30T09:53:35.635Z,58.68
2023-03-30T09:54:34.672Z,58.65
2023-03-30T09:55:34.675Z,58.64
2023-03-30T09:56:34.687Z,58.57
2023-03-30T09:57:34.716Z,58.50
2023-03-30T09:58:34.719Z,58.53
2023-03-30T09:59:34.704Z,58.48
2023-03-30T10:00:34.753Z,58.45
2023-03-30T10:01:34.765Z,58.43
2023-03-30T10:02:34.784Z,58.42
2023-03-30T10:03:34.844Z,58.29
2023-03-30T10:04:34.756Z,58.21
2023-03-30T10:05:34.727Z,58.18
2023-03-30T10:06:34.740Z,58.08
2023-03-30T10:07:34.753Z,58.00
2023-03-30T10:08:34.737Z,57.98
2023-03-30T10:09:34.747Z,57.96
2023-03-30T10:10:34.776Z,57.95
2023-03-30T10:11:34.762Z,57.87
2023-03-30T10:12:34.743Z,57.83
2023-03-30T10:13:34.750Z,57.75
2023-03-30T10:14:34.790Z,57.72
2023-03-30T10:15:34.835Z,57.75
2023-03-30T10:16:34.887Z,57.67
2023-03-30T10:17:34.853Z,57.64
2023-03-30T10:18:34.753Z,57.65
2023-03-30T10:19:37.574Z,57.58
2023-03-30T10:20:34.708Z,57.50
2023-03-30T10:21:35.650Z,57.42
2023-03-30T10:22:34.628Z,57.39
2023-03-30T10:23:34.576Z,57.32
2023-03-30T10:24:34.539Z,57.34
2023-03-30T10:25:34.652Z,57.29
2023-03-30T10:26:34.466Z,57.34
2023-03-30T10:27:34.496Z,57.32
2023-03-30T10:28:34.379Z,57.24
2023-03-30T10:29:34.358Z,57.23
2023-03-30T10:30:34.337Z,57.20
2023-03-30T10:31:34.349Z,57.15
2023-03-30T10:32:34.317Z,57.12
2023-03-30T10:33:35.151Z,57.10
2023-03-30T10:34:34.185Z,57.07
2023-03-30T10:35:34.208Z,57.05
2023-03-30T10:36:34.107Z,57.02
2023-03-30T10:37:34.061Z,56.93
2023-03-30T10:38:34.033Z,56.83
2023-03-30T10:39:33.996Z,56.85
2023-03-30T10:40:33.975Z,56.77
2023-03-30T10:41:34.654Z,56.85
2023-03-30T10:42:33.913Z,56.75
2023-03-30T10:43:33.870Z,56.71
2023-03-30T10:44:33.817Z,56.68
2023-03-30T10:45:33.840Z,56.62
2023-03-30T10:46:33.794Z,56.61
2023-03-30T10:47:33.786Z,56.62
2023-03-30T10:49:01.009Z,56.56
2023-03-30T10:50:00.981Z,56.51
2023-03-30T10:51:00.985Z,56.44
2023-03-30T10:52:00.964Z,56.50
2023-03-30T10:53:01.018Z,56.45
2023-03-30T10:54:00.975Z,56.34
2023-03-30T10:55:00.930Z,56.34
2023-03-30T10:56:00.921Z,56.29
2023-03-30T10:57:00.962Z,56.27
2023-03-30T10:58:00.895Z,56.24
2023-03-30T10:59:00.893Z,56.20
2023-03-30T11:00:01.230Z,56.15
2023-03-30T11:01:01.252Z,56.13
2023-03-30T11:02:00.868Z,56.09
2023-03-30T11:03:00.974Z,56.02
2023-03-30T11:04:09.343Z,56.00
2023-03-30T11:05:01.811Z,56.01
2023-03-30T11:06:00.853Z,55.95
2023-03-30T11:07:00.799Z,55.94
2023-03-30T11:08:00.814Z,55.94
2023-03-30T11:09:00.763Z,55.89
2023-03-30T11:10:00.750Z,55.84
2023-03-30T11:11:00.754Z,55.74
2023-03-30T11:12:00.724Z,55.75
2023-03-30T11:13:00.813Z,55.76
2023-03-30T11:14:00.819Z,55.70
2023-03-30T11:15:01.125Z,55.67
2023-03-30T11:16:00.918Z,55.66
2023-03-30T11:17:01.034Z,55.63
2023-03-30T11:18:01.190Z,55.58
2023-03-30T11:19:01.142Z,55.58
2023-03-30T11:20:01.158Z,55.53
2023-03-30T11:21:01.694Z,55.47
2023-03-30T11:22:01.259Z,55.45
2023-03-30T11:23:01.312Z,55.41
2023-03-30T11:24:01.385Z,55.43
2023-03-30T11:25:01.446Z,55.29
2023-03-30T11:26:01.492Z,55.27
2023-03-30T11:27:01.537Z,55.26
2023-03-30T11:28:01.602Z,55.24
2023-03-30T11:29:01.646Z,55.21
2023-03-30T11:30:01.736Z,55.16
2023-03-30T11:31:01.746Z,55.13
2023-03-30T11:32:01.868Z,55.16
2023-03-30T11:33:01.897Z,55.12
2023-03-30T11:34:01.889Z,55.06
2023-03-30T11:35:01.915Z,55.05
2023-03-30T11:36:02.156Z,55.02
2023-03-30T11:37:02.020Z,54.98
2023-03-30T11:38:02.077Z,54.97
2023-03-30T11:39:02.119Z,54.92
2023-03-30T11:40:02.184Z,54.82
2023-03-30T11:41:02.213Z,54.81
2023-03-30T11:42:02.274Z,54.79
2023-03-30T11:43:02.301Z,54.76
2023-03-30T11:44:02.376Z,54.79
2023-03-30T11:45:02.420Z,54.79
2023-03-30T11:46:03.916Z,54.81
2023-03-30T11:47:02.510Z,54.77
2023-03-30T11:48:02.621Z,54.75
2023-03-30T11:49:02.618Z,54.79
2023-03-30T11:50:02.679Z,54.81
2023-03-30T11:51:02.882Z,54.76
2023-03-30T11:52:02.762Z,54.74
2023-03-30T11:53:03.711Z,54.77
2023-03-30T11:54:02.865Z,54.75
2023-03-30T11:55:04.221Z,54.74
2023-03-30T11:56:03.103Z,54.69
2023-03-30T11:57:03.074Z,54.69
2023-03-30T11:58:04.869Z,54.70
2023-03-30T11:59:03.004Z,54.72
2023-03-30T12:00:02.983Z,54.69
2023-03-30T12:01:03.407Z,54.69
2023-03-30T12:02:02.952Z,54.67
2023-03-30T12:03:03.004Z,54.69
2023-03-30T12:04:03.825Z,54.71
2023-03-30T12:05:03.947Z,54.71
2023-03-30T12:06:03.107Z,54.65
2023-03-30T12:07:02.841Z,54.71
2023-03-30T12:08:02.904Z,54.65
2023-03-30T12:09:02.807Z,54.68
2023-03-30T12:10:06.006Z,54.65
2023-03-30T12:11:03.098Z,54.65
2023-03-30T12:12:02.723Z,54.69
2023-03-30T12:13:02.711Z,54.69
2023-03-30T12:14:03.640Z,54.69
2023-03-30T12:15:02.661Z,54.66
2023-03-30T12:16:02.879Z,54.67
2023-03-30T12:17:02.623Z,54.71
2023-03-30T12:18:02.738Z,54.74
2023-03-30T12:19:02.584Z,54.70
2023-03-30T12:20:02.575Z,54.68
2023-03-30T12:21:02.555Z,54.70
2023-03-30T12:22:02.672Z,54.70
2023-03-30T12:23:02.530Z,54.68
2023-03-30T12:24:02.505Z,54.64
2023-03-30T12:25:02.497Z,54.63
2023-03-30T12:26:02.788Z,54.58
2023-03-30T12:27:05.799Z,54.64
2023-03-30T12:28:02.455Z,54.55
2023-03-30T12:29:21.225Z,54.56
2023-03-30T12:30:03.726Z,54.54
2023-03-30T12:31:02.401Z,54.55
2023-03-30T12:32:02.488Z,54.53
2023-03-30T12:33:02.500Z,54.55
2023-03-30T12:34:02.353Z,54.53
2023-03-30T12:35:02.345Z,54.52
2023-03-30T12:36:02.447Z,54.50
2023-03-30T12:37:03.227Z,54.48
2023-03-30T12:38:02.294Z,54.48
2023-03-30T12:39:02.329Z,54.47
2023-03-30T12:40:02.309Z,54.50
2023-03-30T12:41:02.242Z,54.44
2023-03-30T12:42:02.232Z,54.41
2023-03-30T12:43:02.227Z,54.42
2023-03-30T12:44:02.194Z,54.38
2023-03-30T12:45:02.181Z,54.38
2023-03-30T12:46:02.383Z,54.33
2023-03-30T12:47:03.931Z,54.31
2023-03-30T12:48:02.173Z,54.29
2023-03-30T12:49:04.248Z,54.27
2023-03-30T12:50:02.219Z,54.23
2023-03-30T12:51:02.215Z,54.29
2023-03-30T12:52:02.216Z,54.23
2023-03-30T12:53:03.790Z,54.22